createdAt,value
2023-05-24T00:00:08.562Z,6.10
2023-05-24T00:01:08.551Z,6.90
2023-05-24T00:02:08.536Z,7.40
2023-05-24T00:03:08.638Z,7.60
2023-05-24T00:04:08.586Z,6.50
2023-05-24T00:05:08.633Z,7.60
2023-05-24T00:06:08.496Z,5.70
2023-05-24T00:07:08.482Z,6.70
2023-05-24T00:08:08.479Z,5.90
2023-05-24T00:09:08.460Z,6.70
2023-05-24T00:10:08.449Z,5.40
2023-05-24T00:11:08.451Z,6.80
2023-05-24T00:12:08.435Z,6.70
2023-05-24T00:13:08.412Z,7.90
2023-05-24T00:14:08.404Z,6.70
2023-05-24T00:15:08.405Z,5.50
2023-05-24T00:16:08.405Z,6.30
2023-05-24T00:17:08.375Z,6.40
2023-05-24T00:18:08.514Z,6.20
2023-05-24T00:19:08.352Z,6.00
2023-05-24T00:20:08.375Z,4.90
2023-05-24T00:21:08.333Z,6.40
2023-05-24T00:22:08.320Z,5.80
2023-05-24T00:23:08.313Z,5.60
2023-05-24T00:24:08.295Z,5.60
2023-05-24T00:25:08.282Z,7.40
2023-05-24T00:26:08.268Z,6.40
2023-05-24T00:27:08.266Z,5.40
2023-05-24T00:28:08.264Z,6.50
2023-05-24T00:29:08.242Z,6.00
2023-05-24T00:30:08.246Z,4.80
2023-05-24T00:31:08.214Z,5.50
2023-05-24T00:32:08.226Z,5.40
2023-05-24T00:33:08.192Z,5.40
2023-05-24T00:34:08.180Z,5.20
2023-05-24T00:35:08.195Z,6.80
2023-05-24T00:36:08.210Z,5.80
2023-05-24T00:37:08.161Z,6.20
2023-05-24T00:38:08.137Z,5.60
2023-05-24T00:39:08.124Z,5.40
2023-05-24T00:40:08.113Z,5.60
2023-05-24T00:41:08.114Z,5.70
2023-05-24T00:42:08.105Z,5.00
2023-05-24T00:43:08.081Z,4.80
2023-05-24T00:44:08.069Z,5.10
2023-05-24T00:45:08.066Z,5.30
2023-05-24T00:46:08.100Z,5.80
2023-05-24T00:47:08.038Z,6.00
2023-05-24T00:48:08.059Z,5.30
2023-05-24T00:49:08.021Z,6.30
2023-05-24T00:50:07.999Z,5.90
2023-05-24T00:51:08.006Z,6.60
2023-05-24T00:52:08.008Z,5.20
2023-05-24T00:53:07.971Z,4.80
2023-05-24T00:54:07.976Z,5.60
2023-05-24T00:55:07.952Z,6.60
2023-05-24T00:56:07.944Z,5.30
2023-05-24T00:57:07.989Z,6.10
2023-05-24T00:58:07.949Z,4.70
2023-05-24T00:59:07.905Z,5.60
2023-05-24T01:00:07.903Z,5.20
2023-05-24T01:01:07.934Z,6.20
2023-05-24T01:02:07.886Z,5.50
2023-05-24T01:03:07.993Z,5.10
2023-05-24T01:04:07.853Z,5.70
2023-05-24T01:05:07.839Z,5.00
2023-05-24T01:06:07.976Z,5.50
2023-05-24T01:07:07.832Z,6.80
2023-05-24T01:08:07.868Z,5.30
2023-05-24T01:09:07.808Z,5.10
2023-05-24T01:10:07.782Z,5.80
2023-05-24T01:11:07.772Z,5.80
2023-05-24T01:12:07.776Z,5.40
2023-05-24T01:13:07.751Z,6.10
2023-05-24T01:14:07.744Z,5.10
2023-05-24T01:15:07.740Z,6.10
2023-05-24T01:16:07.802Z,6.40
2023-05-24T01:17:07.708Z,5.70
2023-05-24T01:18:07.959Z,5.90
2023-05-24T01:19:07.687Z,5.90
2023-05-24T01:20:07.756Z,5.70
2023-05-24T01:21:07.679Z,6.30
2023-05-24T01:22:07.649Z,6.10
2023-05-24T01:23:07.643Z,5.00
2023-05-24T01:24:07.652Z,6.30
2023-05-24T01:25:07.624Z,5.60
2023-05-24T01:26:07.605Z,5.30
2023-05-24T01:27:07.619Z,5.80
2023-05-24T01:28:07.590Z,5.60
2023-05-24T01:29:07.593Z,6.20
2023-05-24T01:30:07.566Z,4.90
2023-05-24T01:31:07.560Z,5.70
2023-05-24T01:32:07.543Z,6.00
2023-05-24T01:33:07.559Z,5.80
2023-05-24T01:34:07.515Z,5.40
2023-05-24T01:35:07.509Z,5.80
2023-05-24T01:36:07.499Z,5.40
2023-05-24T01:37:07.493Z,5.70
2023-05-24T01:38:07.469Z,6.00
2023-05-24T01:39:07.481Z,5.00
2023-05-24T01:40:07.469Z,5.60
2023-05-24T01:41:07.451Z,5.30
2023-05-24T01:42:07.427Z,5.90
2023-05-24T01:43:07.420Z,4.90
2023-05-24T01:44:07.397Z,6.30
2023-05-24T01:45:07.398Z,5.40
2023-05-24T01:46:07.379Z,5.70
2023-05-24T01:47:07.556Z,4.90
2023-05-24T01:48:07.398Z,5.50
2023-05-24T01:49:07.346Z,5.10
2023-05-24T01:50:07.336Z,5.10
2023-05-24T01:51:07.327Z,5.80
2023-05-24T01:52:07.338Z,4.40
2023-05-24T01:53:07.309Z,5.60
2023-05-24T01:54:07.296Z,4.80
2023-05-24T01:55:07.281Z,5.20
2023-05-24T01:56:07.292Z,5.60
2023-05-24T01:57:07.257Z,5.30
2023-05-24T01:58:07.248Z,4.70
2023-05-24T01:59:07.236Z,5.50
2023-05-24T02:00:07.220Z,5.70
2023-05-24T02:01:07.243Z,5.40
2023-05-24T02:02:07.233Z,5.30
2023-05-24T02:03:07.269Z,5.30
2023-05-24T02:04:07.187Z,5.50
2023-05-24T02:05:07.168Z,4.90
2023-05-24T02:06:07.153Z,5.20
2023-05-24T02:07:07.144Z,5.90
2023-05-24T02:08:07.128Z,5.20
2023-05-24T02:09:07.128Z,5.80
2023-05-24T02:10:07.113Z,4.60
2023-05-24T02:11:07.100Z,5.30
2023-05-24T02:12:07.118Z,5.00
2023-05-24T02:13:07.078Z,4.70
2023-05-24T02:14:07.067Z,4.40
2023-05-24T02:15:07.073Z,4.80
2023-05-24T02:16:07.045Z,5.10
2023-05-24T02:17:07.104Z,4.70
2023-05-24T02:18:07.085Z,5.50
2023-05-24T02:19:07.019Z,4.50
2023-05-24T02:20:07.032Z,5.10
2023-05-24T02:21:06.988Z,5.10
2023-05-24T02:22:06.980Z,5.00
2023-05-24T02:23:06.975Z,5.00
2023-05-24T02:24:06.989Z,5.10
2023-05-24T02:25:06.954Z,6.10
2023-05-24T02:26:06.935Z,4.70
2023-05-24T02:27:06.926Z,5.00
2023-05-24T02:28:06.942Z,5.80
2023-05-24T02:29:06.907Z,6.00
2023-05-24T02:30:06.890Z,5.00
2023-05-24T02:31:06.980Z,4.90
2023-05-24T02:32:06.866Z,5.00
2023-05-24T02:33:06.992Z,5.90
2023-05-24T02:34:06.845Z,4.60
2023-05-24T02:35:06.840Z,4.70
2023-05-24T02:36:06.825Z,5.40
2023-05-24T02:37:06.816Z,4.60
2023-05-24T02:38:06.863Z,4.50
2023-05-24T02:39:06.789Z,4.90
2023-05-24T02:40:06.779Z,4.80
2023-05-24T02:41:06.767Z,5.00
2023-05-24T02:42:06.754Z,5.10
2023-05-24T02:43:06.749Z,3.80
2023-05-24T02:44:06.769Z,4.90
2023-05-24T02:45:06.720Z,5.30
2023-05-24T02:46:06.728Z,4.90
2023-05-24T02:47:06.700Z,4.80
2023-05-24T02:48:06.729Z,5.40
2023-05-24T02:49:06.675Z,4.70
2023-05-24T02:50:06.677Z,4.30
2023-05-24T02:51:06.666Z,5.60
2023-05-24T02:52:06.642Z,5.10
2023-05-24T02:53:06.630Z,9.80
2023-05-24T02:54:06.629Z,8.60
2023-05-24T02:55:06.612Z,6.80
2023-05-24T02:56:06.592Z,6.90
2023-05-24T02:57:06.587Z,5.00
2023-05-24T02:58:06.575Z,4.90
2023-05-24T02:59:06.563Z,5.30
2023-05-24T03:00:06.572Z,4.60
2023-05-24T03:01:06.542Z,39.20
2023-05-24T03:02:06.643Z,76.30
2023-05-24T03:03:06.592Z,132.10
2023-05-24T03:04:06.533Z,116.80
2023-05-24T03:05:06.498Z,70.30
2023-05-24T03:06:06.481Z,5.70
2023-05-24T03:07:06.472Z,5.60
2023-05-24T03:08:06.457Z,5.40
2023-05-24T03:09:06.449Z,6.00
2023-05-24T03:10:06.454Z,5.60
2023-05-24T03:11:06.424Z,5.70
2023-05-24T03:12:06.454Z,4.80
2023-05-24T03:13:06.407Z,5.30
2023-05-24T03:14:06.401Z,4.90
2023-05-24T03:15:06.388Z,6.90
2023-05-24T03:16:06.469Z,4.60
2023-05-24T03:17:06.399Z,5.40
2023-05-24T03:18:06.519Z,7.60
2023-05-24T03:19:09.188Z,6.40
2023-05-24T03:20:06.517Z,5.00
2023-05-24T03:21:06.497Z,5.20
2023-05-24T03:22:06.473Z,4.70
2023-05-24T03:23:06.314Z,6.80
2023-05-24T03:24:06.288Z,5.40
2023-05-24T03:25:06.280Z,4.90
2023-05-24T03:26:06.258Z,4.80
2023-05-24T03:27:06.256Z,4.90
2023-05-24T03:28:06.238Z,5.00
2023-05-24T03:29:06.232Z,4.90
2023-05-24T03:30:06.216Z,4.60
2023-05-24T03:31:06.207Z,5.80
2023-05-24T03:32:06.266Z,5.00
2023-05-24T03:33:06.220Z,4.50
2023-05-24T03:34:06.166Z,4.80
2023-05-24T03:35:06.165Z,4.70
2023-05-24T03:36:06.147Z,4.50
2023-05-24T03:37:06.162Z,4.60
2023-05-24T03:38:06.135Z,5.40
2023-05-24T03:39:06.150Z,4.50
2023-05-24T03:40:06.110Z,5.10
2023-05-24T03:41:06.111Z,4.30
2023-05-24T03:42:06.085Z,5.20
2023-05-24T03:43:06.081Z,4.80
2023-05-24T03:44:06.085Z,3.70
2023-05-24T03:45:06.051Z,4.30
2023-05-24T03:46:06.073Z,4.90
2023-05-24T03:47:06.031Z,4.50
2023-05-24T03:48:06.096Z,4.40
2023-05-24T03:49:06.014Z,4.40
2023-05-24T03:50:05.990Z,4.90
2023-05-24T03:51:06.004Z,4.60
2023-05-24T03:52:05.978Z,4.60
2023-05-24T03:53:05.969Z,5.20
2023-05-24T03:54:05.946Z,4.80
2023-05-24T03:55:05.940Z,4.40
2023-05-24T03:56:05.935Z,4.40
2023-05-24T03:57:05.911Z,5.40
2023-05-24T03:58:05.912Z,4.80
2023-05-24T03:59:05.895Z,4.80
2023-05-24T04:00:05.875Z,5.30
2023-05-24T04:01:05.907Z,4.60
2023-05-24T04:02:05.904Z,4.60
2023-05-24T04:03:05.919Z,5.50
2023-05-24T04:04:05.928Z,4.40
2023-05-24T04:05:05.824Z,4.40
2023-05-24T04:06:05.810Z,5.20
2023-05-24T04:07:05.800Z,4.40
2023-05-24T04:08:05.796Z,5.60
2023-05-24T04:09:05.776Z,4.80
2023-05-24T04:10:05.763Z,4.10
2023-05-24T04:11:05.755Z,5.20
2023-05-24T04:12:05.743Z,4.60
2023-05-24T04:13:05.743Z,4.60
2023-05-24T04:14:05.719Z,4.20
2023-05-24T04:15:05.718Z,4.70
2023-05-24T04:16:05.702Z,4.90
2023-05-24T04:17:05.782Z,4.80
2023-05-24T04:18:05.799Z,5.40
2023-05-24T04:19:05.664Z,5.40
2023-05-24T04:20:05.728Z,4.90
2023-05-24T04:21:05.641Z,5.40
2023-05-24T04:22:05.623Z,5.30
2023-05-24T04:23:05.618Z,4.50
2023-05-24T04:24:05.607Z,4.60
2023-05-24T04:25:05.668Z,4.50
2023-05-24T04:26:05.584Z,4.30
2023-05-24T04:27:05.569Z,5.90
2023-05-24T04:28:05.564Z,4.90
2023-05-24T04:29:05.557Z,4.20
2023-05-24T04:30:05.540Z,4.70
2023-05-24T04:31:05.535Z,4.40
2023-05-24T04:32:05.521Z,4.70
2023-05-24T04:33:05.591Z,4.70
2023-05-24T04:34:05.497Z,4.70
2023-05-24T04:35:05.486Z,4.50
2023-05-24T04:36:05.512Z,4.50
2023-05-24T04:37:05.463Z,5.40
2023-05-24T04:38:05.461Z,5.40
2023-05-24T04:39:05.452Z,4.20
2023-05-24T04:40:05.444Z,4.70
2023-05-24T04:41:05.432Z,4.50
2023-05-24T04:42:05.420Z,4.50
2023-05-24T04:43:05.397Z,4.20
2023-05-24T04:44:05.390Z,4.90
2023-05-24T04:45:05.384Z,4.00
2023-05-24T04:46:06.899Z,4.60
2023-05-24T04:47:05.528Z,4.00
2023-05-24T04:48:05.378Z,5.40
2023-05-24T04:49:05.329Z,5.30
2023-05-24T04:50:05.323Z,5.20
2023-05-24T04:51:05.307Z,4.10
2023-05-24T04:52:05.323Z,4.30
2023-05-24T04:53:05.290Z,5.70
2023-05-24T04:54:05.277Z,4.80
2023-05-24T04:55:05.263Z,4.70
2023-05-24T04:56:05.252Z,4.90
2023-05-24T04:57:05.268Z,4.50
2023-05-24T04:58:05.256Z,4.90
2023-05-24T04:59:05.218Z,8.70
2023-05-24T05:00:05.209Z,6.10
2023-05-24T05:01:05.199Z,4.80
2023-05-24T05:02:05.294Z,5.10
2023-05-24T05:03:05.284Z,4.00
2023-05-24T05:04:05.302Z,4.00
2023-05-24T05:05:05.183Z,4.80
2023-05-24T05:06:05.141Z,4.30
2023-05-24T05:07:05.142Z,5.20
2023-05-24T05:08:05.143Z,4.80
2023-05-24T05:09:05.102Z,4.60
2023-05-24T05:10:05.112Z,4.60
2023-05-24T05:11:05.082Z,4.30
2023-05-24T05:12:05.072Z,5.30
2023-05-24T05:13:05.090Z,4.40
2023-05-24T05:14:05.051Z,5.50
2023-05-24T05:15:05.039Z,4.40
2023-05-24T05:16:05.089Z,4.70
2023-05-24T05:17:05.011Z,4.60
2023-05-24T05:18:05.038Z,4.70
2023-05-24T05:19:05.004Z,6.40
2023-05-24T05:20:05.035Z,5.20
2023-05-24T05:21:04.976Z,4.80
2023-05-24T05:22:04.959Z,4.70
2023-05-24T05:23:04.948Z,4.80
2023-05-24T05:24:05.011Z,5.60
2023-05-24T05:25:04.926Z,5.40
2023-05-24T05:26:04.912Z,4.30
2023-05-24T05:27:04.901Z,4.60
2023-05-24T05:28:04.892Z,4.90
2023-05-24T05:29:04.883Z,4.50
2023-05-24T05:30:04.890Z,4.20
2023-05-24T05:31:04.855Z,6.10
2023-05-24T05:32:04.923Z,6.90
2023-05-24T05:33:04.907Z,5.00
2023-05-24T05:34:04.832Z,5.80
2023-05-24T05:35:04.817Z,5.40
2023-05-24T05:36:04.805Z,4.90
2023-05-24T05:37:04.790Z,5.20
2023-05-24T05:38:04.783Z,5.20
2023-05-24T05:39:04.776Z,5.20
2023-05-24T05:40:04.787Z,5.60
2023-05-24T05:41:04.753Z,5.10
2023-05-24T05:42:04.750Z,4.50
2023-05-24T05:43:04.744Z,4.90
2023-05-24T05:44:04.716Z,4.40
2023-05-24T05:45:04.711Z,6.10
2023-05-24T05:46:04.755Z,4.60
2023-05-24T05:47:04.682Z,5.10
2023-05-24T05:48:04.717Z,5.90
2023-05-24T05:49:04.679Z,4.60
2023-05-24T05:50:04.655Z,5.10
2023-05-24T05:51:04.644Z,5.40
2023-05-24T05:52:04.630Z,5.50
2023-05-24T05:53:04.612Z,4.80
2023-05-24T05:54:04.604Z,5.60
2023-05-24T05:55:04.603Z,6.00
2023-05-24T05:56:04.676Z,5.80
2023-05-24T05:57:04.579Z,5.10
2023-05-24T05:58:04.567Z,6.20
2023-05-24T05:59:04.548Z,4.60
2023-05-24T06:00:04.542Z,6.00
2023-05-24T06:01:04.533Z,5.20
2023-05-24T06:02:04.557Z,5.10
2023-05-24T06:03:04.596Z,5.70
2023-05-24T06:04:04.532Z,4.80
2023-05-24T06:05:04.480Z,6.50
2023-05-24T06:06:04.468Z,4.90
2023-05-24T06:07:04.473Z,5.10
2023-05-24T06:08:04.445Z,5.80
2023-05-24T06:09:04.439Z,5.40
2023-05-24T06:10:04.435Z,5.40
2023-05-24T06:11:04.424Z,5.40
2023-05-24T06:12:04.424Z,5.00
2023-05-24T06:13:04.394Z,4.90
2023-05-24T06:14:04.388Z,6.10
2023-05-24T06:15:04.385Z,5.00
2023-05-24T06:16:04.397Z,5.50
2023-05-24T06:17:04.346Z,5.30
2023-05-24T06:18:04.394Z,4.30
2023-05-24T06:19:06.327Z,5.10
2023-05-24T06:20:04.342Z,4.50
2023-05-24T06:21:04.298Z,4.70
2023-05-24T06:22:04.291Z,5.80
2023-05-24T06:23:04.279Z,4.40
2023-05-24T06:24:04.273Z,4.80
2023-05-24T06:25:04.260Z,5.20
2023-05-24T06:26:04.245Z,4.50
2023-05-24T06:27:05.587Z,4.40
2023-05-24T06:28:04.247Z,4.40
2023-05-24T06:29:04.215Z,5.10
2023-05-24T06:30:04.319Z,5.20
2023-05-24T06:31:04.241Z,4.50
2023-05-24T06:32:04.181Z,4.50
2023-05-24T06:33:04.221Z,5.10
2023-05-24T06:34:04.811Z,4.50
2023-05-24T06:35:04.150Z,6.30
2023-05-24T06:36:04.138Z,5.70
2023-05-24T06:37:04.132Z,4.80
2023-05-24T06:38:04.126Z,3.90
2023-05-24T06:39:04.116Z,4.70
2023-05-24T06:40:04.165Z,4.40
2023-05-24T06:41:04.085Z,4.90
2023-05-24T06:42:04.073Z,4.20
2023-05-24T06:43:04.054Z,5.00
2023-05-24T06:44:04.169Z,4.40
2023-05-24T06:45:04.064Z,4.30
2023-05-24T06:46:04.192Z,5.20
2023-05-24T06:47:04.046Z,3.90
2023-05-24T06:48:04.080Z,4.30
2023-05-24T06:49:04.081Z,4.20
2023-05-24T06:50:03.988Z,4.60
2023-05-24T06:51:03.969Z,4.30
2023-05-24T06:52:03.996Z,5.10
2023-05-24T06:53:03.947Z,5.10
2023-05-24T06:54:03.934Z,4.30
2023-05-24T06:55:03.919Z,4.50
2023-05-24T06:56:03.915Z,4.10
2023-05-24T06:57:03.924Z,4.70
2023-05-24T06:58:03.890Z,5.40
2023-05-24T06:59:03.896Z,4.20
2023-05-24T07:00:03.940Z,4.30
2023-05-24T07:01:03.930Z,4.50
2023-05-24T07:02:04.353Z,4.70
2023-05-24T07:03:03.915Z,5.00
2023-05-24T07:04:03.869Z,4.40
2023-05-24T07:05:03.851Z,4.70
2023-05-24T07:06:03.794Z,4.40
2023-05-24T07:07:03.797Z,5.00
2023-05-24T07:08:03.772Z,4.50
2023-05-24T07:09:03.760Z,4.40
2023-05-24T07:10:03.750Z,4.30
2023-05-24T07:11:03.768Z,4.50
2023-05-24T07:12:03.738Z,4.40
2023-05-24T07:13:03.715Z,3.70
2023-05-24T07:14:03.709Z,4.30
2023-05-24T07:15:03.686Z,4.30
2023-05-24T07:16:03.720Z,4.50
2023-05-24T07:17:03.783Z,5.30
2023-05-24T07:18:03.684Z,4.10
2023-05-24T07:19:04.860Z,3.90
2023-05-24T07:20:03.870Z,4.40
2023-05-24T07:21:03.626Z,5.20
2023-05-24T07:22:03.616Z,5.00
2023-05-24T07:23:03.603Z,5.60
2023-05-24T07:24:03.597Z,5.60
2023-05-24T07:25:03.583Z,4.50
2023-05-24T07:26:03.577Z,4.70
2023-05-24T07:27:03.556Z,3.90
2023-05-24T07:28:03.574Z,4.40
2023-05-24T07:29:03.540Z,4.30
2023-05-24T07:30:03.529Z,4.50
2023-05-24T07:31:03.515Z,4.40
2023-05-24T07:32:03.551Z,4.50
2023-05-24T07:33:03.882Z,4.90
2023-05-24T07:34:03.486Z,5.10
2023-05-24T07:35:03.473Z,5.80
2023-05-24T07:36:03.459Z,4.00
2023-05-24T07:37:03.459Z,4.50
2023-05-24T07:38:03.437Z,4.10
2023-05-24T07:39:03.422Z,4.80
2023-05-24T07:40:03.427Z,4.60
2023-05-24T07:41:03.396Z,4.00
2023-05-24T07:42:03.395Z,4.80
2023-05-24T07:43:04.331Z,4.40
2023-05-24T07:44:03.380Z,4.30
2023-05-24T07:45:03.365Z,4.40
2023-05-24T07:46:03.384Z,5.00
2023-05-24T07:47:03.362Z,4.90
2023-05-24T07:48:03.381Z,4.30
2023-05-24T07:49:03.322Z,4.10
2023-05-24T07:50:03.302Z,4.40
2023-05-24T07:51:03.288Z,5.20
2023-05-24T07:52:03.284Z,5.40
2023-05-24T07:53:03.272Z,4.80
2023-05-24T07:54:03.252Z,4.20
2023-05-24T07:55:03.248Z,5.20
2023-05-24T07:56:03.278Z,5.10
2023-05-24T07:57:03.223Z,5.10
2023-05-24T07:58:03.208Z,4.60
2023-05-24T07:59:03.203Z,4.10
2023-05-24T08:00:03.201Z,3.80
2023-05-24T08:01:03.175Z,4.80
2023-05-24T08:02:03.173Z,4.10
2023-05-24T08:03:03.272Z,4.40
2023-05-24T08:04:03.542Z,4.40
2023-05-24T08:05:03.133Z,4.30
2023-05-24T08:06:03.119Z,4.30
2023-05-24T08:07:03.129Z,5.10
2023-05-24T08:08:03.147Z,6.20
2023-05-24T08:09:03.082Z,4.90
2023-05-24T08:10:03.079Z,4.90
2023-05-24T08:11:03.077Z,4.60
2023-05-24T08:12:03.057Z,5.70
2023-05-24T08:13:03.048Z,4.10
2023-05-24T08:14:03.034Z,3.90
2023-05-24T08:15:03.017Z,4.70
2023-05-24T08:16:03.033Z,4.10
2023-05-24T08:17:03.026Z,5.20
2023-05-24T08:18:03.015Z,5.90
2023-05-24T08:19:02.978Z,4.60
2023-05-24T08:20:03.045Z,4.80
2023-05-24T08:21:02.948Z,5.10
2023-05-24T08:22:02.939Z,5.70
2023-05-24T08:23:02.926Z,6.00
2023-05-24T08:24:02.926Z,4.40
2023-05-24T08:25:02.905Z,4.40
2023-05-24T08:26:02.902Z,5.30
2023-05-24T08:27:02.891Z,5.00
2023-05-24T08:28:02.917Z,4.30
2023-05-24T08:29:02.865Z,4.90
2023-05-24T08:30:02.870Z,5.70
2023-05-24T08:31:02.840Z,4.30
2023-05-24T08:32:02.907Z,4.50
2023-05-24T08:33:02.849Z,4.50
2023-05-24T08:34:02.809Z,5.40
2023-05-24T08:35:18.409Z,4.90
2023-05-24T08:36:03.101Z,4.10
2023-05-24T08:37:02.776Z,4.50
2023-05-24T08:38:02.773Z,4.50
2023-05-24T08:39:02.748Z,4.10
2023-05-24T08:40:02.741Z,5.00
2023-05-24T08:41:02.727Z,4.40
2023-05-24T08:43:02.706Z,5.00
2023-05-24T08:44:02.704Z,4.70
2023-05-24T08:45:02.682Z,5.90
2023-05-24T08:46:02.687Z,4.70
2023-05-24T08:47:02.679Z,4.80
2023-05-24T08:48:02.697Z,4.40
2023-05-24T08:49:02.710Z,4.50
2023-05-24T08:50:02.633Z,4.70
2023-05-24T08:51:02.625Z,6.60
2023-05-24T08:52:02.636Z,5.00
2023-05-24T08:53:02.592Z,4.40
2023-05-24T08:54:02.582Z,4.50
2023-05-24T08:55:02.571Z,4.70
2023-05-24T08:56:02.566Z,5.40
2023-05-24T08:57:02.547Z,6.00
2023-05-24T08:58:02.564Z,7.10
2023-05-24T08:59:02.538Z,4.80
2023-05-24T09:00:02.620Z,4.90
2023-05-24T09:01:02.603Z,4.60
2023-05-24T09:02:02.568Z,4.40
2023-05-24T09:03:02.589Z,6.20
2023-05-24T09:04:02.528Z,4.40
2023-05-24T09:05:02.489Z,6.20
2023-05-24T09:06:02.452Z,3.70
2023-05-24T09:07:02.441Z,5.50
2023-05-24T09:08:02.520Z,5.20
2023-05-24T09:09:02.422Z,5.90
2023-05-24T09:10:02.410Z,4.40
2023-05-24T09:11:02.393Z,5.60
2023-05-24T09:12:02.386Z,4.30
2023-05-24T09:13:02.380Z,5.30
2023-05-24T09:14:02.384Z,4.40
2023-05-24T09:15:02.352Z,4.50
2023-05-24T09:16:02.386Z,5.20
2023-05-24T09:17:02.361Z,3.90
2023-05-24T09:18:02.334Z,4.70
2023-05-24T09:19:02.316Z,4.30
2023-05-24T09:20:02.373Z,5.00
2023-05-24T09:21:02.280Z,4.40
2023-05-24T09:22:02.267Z,18.30
2023-05-24T09:23:02.399Z,4.50
2023-05-24T09:24:02.319Z,5.30
2023-05-24T09:25:02.237Z,4.70
2023-05-24T09:26:02.218Z,5.50
2023-05-24T09:27:02.207Z,4.90
2023-05-24T09:28:02.206Z,5.80
2023-05-24T09:29:02.183Z,12.00
2023-05-24T09:30:02.167Z,5.20
2023-05-24T09:31:04.561Z,4.10
2023-05-24T09:32:02.262Z,5.30
2023-05-24T09:33:02.259Z,4.60
2023-05-24T09:34:02.134Z,5.20
2023-05-24T09:35:02.118Z,6.10
2023-05-24T09:36:02.114Z,4.60
2023-05-24T09:37:02.109Z,7.10
2023-05-24T09:38:02.076Z,4.20
2023-05-24T09:39:02.070Z,14.50
2023-05-24T09:40:02.090Z,4.30
2023-05-24T09:41:02.053Z,16.00
2023-05-24T09:42:02.047Z,6.10
2023-05-24T09:43:02.029Z,4.70
2023-05-24T09:44:02.010Z,17.30
2023-05-24T09:45:02.009Z,48.20
2023-05-24T09:46:01.997Z,34.10
2023-05-24T09:47:02.036Z,33.30
2023-05-24T09:48:02.024Z,27.20
2023-05-24T09:49:02.110Z,5.30
2023-05-24T09:50:01.963Z,5.90
2023-05-24T09:51:01.994Z,5.60
2023-05-24T09:52:01.997Z,5.40
2023-05-24T09:53:01.915Z,4.60
2023-05-24T09:54:01.926Z,4.80
2023-05-24T09:55:01.891Z,4.20
2023-05-24T09:56:02.072Z,4.80
2023-05-24T09:57:03.463Z,6.40
2023-05-24T09:58:01.866Z,4.90
2023-05-24T09:59:01.850Z,4.20
2023-05-24T10:00:01.919Z,4.50
2023-05-24T10:01:01.896Z,4.50
2023-05-24T10:02:01.817Z,5.80
2023-05-24T10:03:01.905Z,5.00
2023-05-24T10:04:01.991Z,6.80
2023-05-24T10:05:01.802Z,5.10
2023-05-24T10:06:01.774Z,4.80
2023-05-24T10:07:01.758Z,4.70
2023-05-24T10:08:01.749Z,4.70
2023-05-24T10:09:01.751Z,4.00
2023-05-24T10:10:01.741Z,4.20
2023-05-24T10:11:01.731Z,4.50
2023-05-24T10:12:01.761Z,4.40
2023-05-24T10:13:01.737Z,4.50
2023-05-24T10:14:01.709Z,4.80
2023-05-24T10:15:01.694Z,4.10
2023-05-24T10:16:01.674Z,4.10
2023-05-24T10:17:01.709Z,4.30
2023-05-24T10:18:01.878Z,4.30
2023-05-24T10:19:01.629Z,4.40
2023-05-24T10:20:01.747Z,4.10
2023-05-24T10:21:01.997Z,3.90
2023-05-24T10:22:01.692Z,4.10
2023-05-24T10:23:02.109Z,4.50
2023-05-24T10:24:01.693Z,3.60
2023-05-24T10:25:01.686Z,4.10
2023-05-24T10:26:01.679Z,4.30
2023-05-24T10:27:01.559Z,4.30
2023-05-24T10:28:01.659Z,3.70
2023-05-24T10:29:01.525Z,4.60
2023-05-24T10:30:01.520Z,4.30
2023-05-24T10:31:01.658Z,5.00
2023-05-24T10:32:01.481Z,3.70
2023-05-24T10:33:01.533Z,4.50
2023-05-24T10:34:07.963Z,3.70
2023-05-24T10:35:02.527Z,4.80
2023-05-24T10:36:01.462Z,4.40
2023-05-24T10:37:01.426Z,4.50
2023-05-24T10:38:01.429Z,4.50
2023-05-24T10:39:01.407Z,4.20
2023-05-24T10:40:01.396Z,4.00
2023-05-24T10:41:01.399Z,6.20
2023-05-24T10:42:01.382Z,4.80
2023-05-24T10:43:01.356Z,4.00
2023-05-24T10:44:09.923Z,3.80
2023-05-24T10:45:02.533Z,4.70
2023-05-24T10:46:01.388Z,3.80
2023-05-24T10:47:01.323Z,3.30
2023-05-24T10:48:01.321Z,3.40
2023-05-24T10:49:01.289Z,3.50
2023-05-24T10:50:01.283Z,4.00
2023-05-24T10:51:01.302Z,3.70
2023-05-24T10:52:01.275Z,3.30
2023-05-24T10:53:01.248Z,3.20
2023-05-24T10:54:01.227Z,3.10
2023-05-24T10:55:04.336Z,3.10
2023-05-24T10:56:01.221Z,4.10
2023-05-24T10:57:01.200Z,3.30
2023-05-24T10:58:01.196Z,3.60
2023-05-24T10:59:01.181Z,3.50
2023-05-24T11:00:01.224Z,3.30
2023-05-24T11:01:01.162Z,3.60
2023-05-24T11:02:01.327Z,6.00
2023-05-24T11:03:01.217Z,3.20
2023-05-24T11:04:01.131Z,4.00
2023-05-24T11:05:01.133Z,4.20
2023-05-24T11:06:01.184Z,3.70
2023-05-24T11:07:01.111Z,3.60
2023-05-24T11:08:01.098Z,2.90
2023-05-24T11:09:01.106Z,3.50
2023-05-24T11:10:01.076Z,3.60
2023-05-24T11:11:11.492Z,3.80
2023-05-24T11:12:02.074Z,3.70
2023-05-24T11:13:01.046Z,4.30
2023-05-24T11:14:01.017Z,4.30
2023-05-24T11:15:01.001Z,4.00
2023-05-24T11:16:01.047Z,3.70
2023-05-24T11:17:00.985Z,3.50
2023-05-24T11:18:01.023Z,3.90
2023-05-24T11:19:00.967Z,4.00
2023-05-24T11:20:01.000Z,3.90
2023-05-24T11:21:00.941Z,4.50
2023-05-24T11:22:00.924Z,3.60
2023-05-24T11:23:00.914Z,3.70
2023-05-24T11:24:00.910Z,4.00
2023-05-24T11:25:00.896Z,3.80
2023-05-24T11:26:00.877Z,3.60
2023-05-24T11:27:00.872Z,3.60
2023-05-24T11:28:00.911Z,3.60
2023-05-24T11:29:04.091Z,3.70
2023-05-24T11:30:00.853Z,4.30
2023-05-24T11:31:00.828Z,3.80
2023-05-24T11:32:00.897Z,3.50
2023-05-24T11:33:00.838Z,3.80
2023-05-24T11:34:00.787Z,4.10
2023-05-24T11:35:00.798Z,3.70
2023-05-24T11:36:00.781Z,3.90
2023-05-24T11:37:00.753Z,5.10
2023-05-24T11:38:00.754Z,4.60
2023-05-24T11:39:00.734Z,4.30
2023-05-24T11:40:00.722Z,5.00
2023-05-24T11:41:00.714Z,4.50
2023-05-24T11:42:00.703Z,5.10
2023-05-24T11:43:00.692Z,6.90
2023-05-24T11:44:00.690Z,8.40
2023-05-24T11:45:00.668Z,6.90
2023-05-24T11:46:00.740Z,12.80
2023-05-24T11:47:00.685Z,11.30
2023-05-24T11:48:00.750Z,7.70
2023-05-24T11:49:00.621Z,9.60
2023-05-24T11:50:00.612Z,7.60
2023-05-24T11:51:00.601Z,6.80
2023-05-24T11:52:00.585Z,5.60
2023-05-24T11:53:00.592Z,6.40
2023-05-24T11:54:00.584Z,5.90
2023-05-24T11:55:00.562Z,6.10
2023-05-24T11:56:00.544Z,7.20
2023-05-24T11:57:00.548Z,6.50
2023-05-24T11:58:00.528Z,6.30
2023-05-24T11:59:00.515Z,4.60
2023-05-24T12:00:00.513Z,5.00
2023-05-24T12:01:00.488Z,5.20
2023-05-24T12:02:00.579Z,4.50
2023-05-24T12:03:00.545Z,5.00
2023-05-24T12:04:00.570Z,4.10
2023-05-24T12:05:00.673Z,5.00
2023-05-24T12:06:00.437Z,4.40
2023-05-24T12:07:00.423Z,4.30
2023-05-24T12:08:00.404Z,5.70
2023-05-24T12:09:00.396Z,6.40
2023-05-24T12:10:00.390Z,5.70
2023-05-24T12:11:00.373Z,5.60
2023-05-24T12:12:00.363Z,5.70
2023-05-24T12:13:00.355Z,5.80
2023-05-24T12:14:00.336Z,6.50
2023-05-24T12:15:00.340Z,7.60
2023-05-24T12:16:00.346Z,7.90
2023-05-24T12:17:00.315Z,6.30
2023-05-24T12:18:00.368Z,7.10
2023-05-24T12:19:05.805Z,7.50
2023-05-24T12:20:01.477Z,7.20
2023-05-24T12:21:00.271Z,9.20
2023-05-24T12:22:00.465Z,7.20
2023-05-24T12:23:00.241Z,6.30
2023-05-24T12:24:00.232Z,6.60
2023-05-24T12:25:00.226Z,8.00
2023-05-24T12:26:00.215Z,10.40
2023-05-24T12:27:00.193Z,10.20
2023-05-24T12:28:00.195Z,7.80
2023-05-24T12:29:00.184Z,8.60
2023-05-24T12:30:00.223Z,7.90
2023-05-24T12:31:00.230Z,9.10
2023-05-24T12:32:00.184Z,8.00
2023-05-24T12:33:00.243Z,8.20
2023-05-24T12:34:00.166Z,10.50
2023-05-24T12:35:00.146Z,14.40
2023-05-24T12:36:00.171Z,14.50
2023-05-24T12:37:00.104Z,7.80
2023-05-24T12:38:00.091Z,7.30
2023-05-24T12:39:00.090Z,9.10
2023-05-24T12:40:00.076Z,8.80
2023-05-24T12:41:12.210Z,9.10
2023-05-24T12:42:00.042Z,10.70
2023-05-24T12:43:00.025Z,7.60
2023-05-24T12:44:00.008Z,13.00
2023-05-24T12:44:59.996Z,11.10
2023-05-24T12:45:59.983Z,8.90
2023-05-24T12:47:00.087Z,8.70
2023-05-24T12:47:59.995Z,7.40
2023-05-24T12:48:59.953Z,5.50
2023-05-24T12:49:59.939Z,5.80
2023-05-24T12:50:59.939Z,6.90
2023-05-24T12:51:59.973Z,6.30
2023-05-24T12:52:59.920Z,7.10
2023-05-24T12:53:59.896Z,4.70
2023-05-24T12:54:59.895Z,5.20
2023-05-24T12:55:59.871Z,7.10
2023-05-24T12:57:00.157Z,4.90
2023-05-24T12:57:59.858Z,5.40
2023-05-24T12:58:59.846Z,6.20
2023-05-24T12:59:59.829Z,5.70
2023-05-24T13:00:59.872Z,6.50
2023-05-24T13:01:59.807Z,5.10
2023-05-24T13:02:59.932Z,6.80
2023-05-24T13:03:59.787Z,6.50
2023-05-24T13:04:59.808Z,6.30
2023-05-24T13:05:59.766Z,6.30
2023-05-24T13:06:59.754Z,5.00
2023-05-24T13:07:59.832Z,4.90
2023-05-24T13:08:59.751Z,4.80
2023-05-24T13:09:59.737Z,5.00
2023-05-24T13:10:59.718Z,4.60
2023-05-24T13:11:59.708Z,4.00
2023-05-24T13:12:59.693Z,5.20
2023-05-24T13:13:59.736Z,6.50
2023-05-24T13:14:59.670Z,9.20
2023-05-24T13:15:59.656Z,18.60
2023-05-24T13:16:59.708Z,4.10
2023-05-24T13:17:59.689Z,4.80